Time,TemperatureF,DewpointF,PressureIn,WindDirection,WindDirectionDegrees,WindSpeedMPH,WindSpeedGustMPH,Humidity,HourlyPrecipIn,Conditions,Clouds,dailyrainin,SoftwareType,DateUTC
2013-10-13 00:00:00,40.0,33.7,30.04,ESE,108,0.0,5.0,78,0.00,CLR,CLR,0.00,WeatherDisplay:10.37,2013-10-13 06:00:00,
2013-10-13 00:05:00,39.8,33.8,30.04,SE,129,5.0,8.0,79,0.00,CLR,CLR,0.00,WeatherDisplay:10.37,2013-10-13 06:05:00,
2013-10-13 00:10:00,40.2,34.2,30.04,ESE,114,2.0,12.0,79,0.00,CLR,CLR,0.00,WeatherDisplay:10.37,2013-10-13 06:10:00,
2013-10-13 00:15:00,40.2,33.9,30.04,ESE,102,6.0,10.0,78,0.00,CLR,CLR,0.00,WeatherDisplay:10.37,2013-10-13 06:15:00,
2013-10-13 00:20:00,39.7,33.8,30.04,ESE,106,3.0,6.0,79,0.00,CLR,CLR,0.00,WeatherDisplay:10.37,2013-10-13 06:20:00,
2013-10-13 00:25:00,39.3,33.6,30.04,ESE,109,5.0,8.0,80,0.00,CLR,CLR,0.00,WeatherDisplay:10.37,2013-10-13 06:25:00,
2013-10-13 00:30:00,39.2,33.5,30.04,ESE,105,5.0,12.0,80,0.00,CLR,CLR,0.00,WeatherDisplay:10.37,2013-10-13 06:30:00,
2013-10-13 00:35:00,39.1,33.5,30.04,ESE,105,3.0,9.0,80,0.00,CLR,CLR,0.00,WeatherDisplay:10.37,2013-10-13 06:35:00,
2013-10-13 00:40:00,39.2,33.5,30.04,ESE,107,3.0,9.0,80,0.00,CLR,CLR,0.00,WeatherDisplay:10.37,2013-10-13 06:40:00,
2013-10-13 00:45:00,39.0,33.4,30.04,ESE,109,3.0,9.0,80,0.00,CLR,CLR,0.00,WeatherDisplay:10.37,2013-10-13 06:45:00,
2013-10-13 00:50:00,39.2,33.6,30.03,East,99,6.0,10.0,80,0.00,CLR,CLR,0.00,WeatherDisplay:10.37,2013-10-13 06:50:00,
2013-10-13 00:55:00,39.8,33.8,30.04,East,100,5.0,11.0,79,0.00,CLR,CLR,0.00,WeatherDisplay:10.37,2013-10-13 06:55:00,
2013-10-13 01:00:00,40.1,33.8,30.03,East,95,3.0,6.0,78,0.00,CLR,CLR,0.00,WeatherDisplay:10.37,2013-10-13 07:00:00,
2013-10-13 01:05:00,40.2,33.9,30.03,East,93,3.0,8.0,78,0.00,CLR,CLR,0.00,WeatherDisplay:10.37,2013-10-13 07:05:00,
2013-10-13 01:10:00,39.9,33.6,30.03,East,95,1.0,7.0,78,0.00,CLR,CLR,0.00,WeatherDisplay:10.37,2013-10-13 07:10:00,
2013-10-13 01:15:00,40.0,33.7,30.03,East,92,0.0,3.0,78,0.00,CLR,CLR,0.00,WeatherDisplay:10.37,2013-10-13 07:15:00,
2013-10-13 01:20:00,40.0,33.7,30.03,East,95,0.0,0.0,78,0.00,CLR,CLR,0.00,WeatherDisplay:10.37,2013-10-13 07:20:00,
2013-10-13 01:25:00,39.7,33.7,30.03,East,94,0.0,0.0,79,0.00,CLR,CLR,0.00,WeatherDisplay:10.37,2013-10-13 07:25:00,
2013-10-13 01:30:00,40.0,33.7,30.03,ESE,109,1.0,6.0,78,0.00,CLR,CLR,0.00,WeatherDisplay:10.37,2013-10-13 07:30:00,
2013-10-13 01:35:00,40.3,34.0,30.02,ESE,108,1.0,5.0,78,0.00,CLR,CLR,0.00,WeatherDisplay:10.37,2013-10-13 07:35:00,
2013-10-13 01:40:00,40.4,34.1,30.02,East,85,1.0,6.0,78,0.00,CLR,CLR,0.00,WeatherDisplay:10.37,2013-10-13 07:40:00,
2013-10-13 01:45:00,40.5,34.2,30.02,ENE,74,0.0,5.0,78,0.00,CLR,CLR,0.00,WeatherDisplay:10.37,2013-10-13 07:45:00,
2013-10-13 01:50:00,40.6,34.3,30.02,ENE,74,0.0,0.0,78,0.00,CLR,CLR,0.00,WeatherDisplay:10.37,2013-10-13 07:50:00,
2013-10-13 01:55:00,40.9,34.2,30.01,East,91,1.0,7.0,77,0.00,CLR,CLR,0.00,WeatherDisplay:10.37,2013-10-13 07:55:00,
2013-10-13 02:00:00,41.6,34.3,30.01,ESE,108,0.0,6.0,75,0.00,CLR,CLR,0.00,WeatherDisplay:10.37,2013-10-13 08:00:00,
2013-10-13 02:05:00,41.8,34.5,30.02,ESE,118,0.0,0.0,75,0.00,CLR,CLR,0.00,WeatherDisplay:10.37,2013-10-13 08:05:00,
2013-10-13 02:10:00,41.8,34.5,30.02,ESE,121,0.0,0.0,75,0.00,CLR,CLR,0.00,WeatherDisplay:10.37,2013-10-13 08:10:00,
2013-10-13 02:15:00,41.7,34.4,30.01,ESE,117,0.0,0.0,75,0.00,CLR,CLR,0.00,WeatherDisplay:10.37,2013-10-13 08:15:00,
2013-10-13 02:20:00,41.4,34.8,30.01,ESE,110,0.0,4.0,77,0.00,CLR,CLR,0.00,WeatherDisplay:10.37,2013-10-13 08:20:00,
2013-10-13 02:25:00,41.3,34.3,30.01,ESE,109,1.0,5.0,76,0.00,CLR,CLR,0.00,WeatherDisplay:10.37,2013-10-13 08:25:00,
2013-10-13 02:30:00,41.3,34.6,30.00,ESE,113,0.0,6.0,77,0.00,CLR,CLR,0.00,WeatherDisplay:10.37,2013-10-13 08:30:00,
2013-10-13 02:35:00,41.5,34.5,30.00,East,97,0.0,7.0,76,0.00,CLR,CLR,0.00,WeatherDisplay:10.37,2013-10-13 08:35:00,
2013-10-13 02:40:00,41.3,34.3,30.00,ESE,114,3.0,6.0,76,0.00,CLR,CLR,0.00,WeatherDisplay:10.37,2013-10-13 08:40:00,
2013-10-13 02:45:00,40.9,33.9,30.00,SE,134,0.0,0.0,76,0.00,CLR,CLR,0.00,WeatherDisplay:10.37,2013-10-13 08:45:00,
2013-10-13 02:50:00,40.6,34.0,30.00,SE,146,0.0,0.0,77,0.00,CLR,CLR,0.00,WeatherDisplay:10.37,2013-10-13 08:50:00,
2013-10-13 02:55:00,40.4,33.8,30.00,SSE,150,0.0,0.0,77,0.00,CLR,CLR,0.00,WeatherDisplay:10.37,2013-10-13 08:55:00,
2013-10-13 03:00:00,40.0,33.7,30.00,SSE,150,0.0,0.0,78,0.00,CLR,CLR,0.00,WeatherDisplay:10.37,2013-10-13 09:00:00,
2013-10-13 03:05:00,39.8,33.5,30.00,South,171,0.0,0.0,78,0.00,CLR,CLR,0.00,WeatherDisplay:10.37,2013-10-13 09:05:00,
2013-10-13 03:10:00,39.5,33.5,29.99,SSW,203,0.0,0.0,79,0.00,CLR,CLR,0.00,WeatherDisplay:10.37,2013-10-13 09:10:00,
2013-10-13 03:15:00,39.3,33.3,29.99,SSW,206,0.0,0.0,79,0.00,CLR,CLR,0.00,WeatherDisplay:10.37,2013-10-13 09:15:00,
2013-10-13 03:20:00,39.5,33.5,29.99,SSW,202,0.0,0.0,79,0.00,CLR,CLR,0.00,WeatherDisplay:10.37,2013-10-13 09:20:00,
2013-10-13 03:25:00,39.5,33.5,29.99,SSW,202,0.0,0.0,79,0.00,CLR,CLR,0.00,WeatherDisplay:10.37,2013-10-13 09:25:00,
2013-10-13 03:30:00,39.4,33.4,29.98,SSW,202,1.0,4.0,79,0.00,CLR,CLR,0.00,WeatherDisplay:10.37,2013-10-13 09:30:00,
2013-10-13 03:35:00,39.3,33.1,29.99,SSW,199,0.0,5.0,78,0.00,CLR,CLR,0.00,WeatherDisplay:10.37,2013-10-13 09:35:00,
2013-10-13 03:40:00,40.5,33.8,29.98,SSW,195,0.0,0.0,77,0.00,CLR,CLR,0.00,WeatherDisplay:10.37,2013-10-13 09:40:00,
2013-10-13 03:45:00,40.6,33.6,29.98,SSW,194,0.0,0.0,76,0.00,CLR,CLR,0.00,WeatherDisplay:10.37,2013-10-13 09:45:00,
2013-10-13 03:50:00,40.5,33.9,29.99,SSW,213,0.0,4.0,77,0.00,CLR,CLR,0.00,WeatherDisplay:10.37,2013-10-13 09:50:00,
2013-10-13 03:55:00,40.5,33.9,29.98,WSW,252,0.0,6.0,77,0.00,CLR,CLR,0.00,WeatherDisplay:10.37,2013-10-13 09:55:00,
2013-10-13 04:00:00,40.1,33.8,29.98,NW,322,1.0,5.0,78,0.00,CLR,CLR,0.00,WeatherDisplay:10.37,2013-10-13 10:00:00,
2013-10-13 04:05:00,39.5,33.8,29.98,SE,144,0.0,0.0,80,0.00,CLR,CLR,0.00,WeatherDisplay:10.37,2013-10-13 10:05:00,
2013-10-13 04:10:00,39.2,33.6,29.98,South,181,0.0,0.0,80,0.00,CLR,CLR,0.00,WeatherDisplay:10.37,2013-10-13 10:10:00,
2013-10-13 04:15:00,39.7,33.8,29.97,East,90,0.0,8.0,79,0.00,CLR,CLR,0.00,WeatherDisplay:10.37,2013-10-13 10:15:00,
2013-10-13 04:20:00,40.6,33.6,29.97,ESE,116,0.0,5.0,76,0.00,CLR,CLR,0.00,WeatherDisplay:10.37,2013-10-13 10:20:00,
2013-10-13 04:25:00,40.5,33.9,29.98,South,180,0.0,0.0,77,0.00,CLR,CLR,0.00,WeatherDisplay:10.37,2013-10-13 10:25:00,
2013-10-13 04:30:00,40.2,33.6,29.97,South,187,0.0,0.0,77,0.00,CLR,CLR,0.00,WeatherDisplay:10.37,2013-10-13 10:30:00,
2013-10-13 04:35:00,40.2,33.6,29.98,South,180,0.0,0.0,77,0.00,CLR,CLR,0.00,WeatherDisplay:10.37,2013-10-13 10:35:00,
2013-10-13 04:40:00,39.9,33.3,29.98,South,180,0.0,0.0,77,0.00,CLR,CLR,0.00,WeatherDisplay:10.37,2013-10-13 10:40:00,
2013-10-13 04:45:00,39.5,33.3,29.98,South,180,0.0,0.0,78,0.00,CLR,CLR,0.00,WeatherDisplay:10.37,2013-10-13 10:45:00,
2013-10-13 04:50:00,38.7,32.7,29.98,South,180,0.0,0.0,79,0.00,CLR,CLR,0.00,WeatherDisplay:10.37,2013-10-13 10:50:00,
2013-10-13 05:00:00,37.7,32.1,29.98,SSE,152,2.0,6.0,80,0.00,CLR,CLR,0.00,WeatherDisplay:10.37,2013-10-13 11:00:00,
2013-10-13 05:05:00,37.2,31.9,29.98,SE,139,0.0,0.0,81,0.00,CLR,CLR,0.00,WeatherDisplay:10.37,2013-10-13 11:05:00,
2013-10-13 05:10:00,36.5,31.8,29.97,SE,144,1.0,7.0,83,0.00,CLR,CLR,0.00,WeatherDisplay:10.37,2013-10-13 11:10:00,
2013-10-13 05:15:00,36.6,32.2,29.97,South,181,1.0,9.0,84,0.00,CLR,CLR,0.00,WeatherDisplay:10.37,2013-10-13 11:15:00,
2013-10-13 05:20:00,37.8,32.2,29.97,SE,130,5.0,6.0,80,0.00,CLR,CLR,0.00,WeatherDisplay:10.37,2013-10-13 11:20:00,
2013-10-13 05:25:00,38.1,32.2,29.97,ESE,118,3.0,5.0,79,0.00,CLR,CLR,0.00,WeatherDisplay:10.37,2013-10-13 11:25:00,
2013-10-13 05:30:00,38.0,32.0,29.97,SE,132,5.0,7.0,79,0.00,CLR,CLR,0.00,WeatherDisplay:10.37,2013-10-13 11:30:00,
2013-10-13 05:35:00,38.6,32.4,29.96,SE,127,3.0,6.0,78,0.00,CLR,CLR,0.00,WeatherDisplay:10.37,2013-10-13 11:35:00,
2013-10-13 05:40:00,39.6,32.7,29.97,SE,133,6.0,8.0,76,0.00,CLR,CLR,0.00,WeatherDisplay:10.37,2013-10-13 11:40:00,
2013-10-13 05:45:00,41.3,33.0,29.97,SE,141,3.0,10.0,72,0.00,CLR,CLR,0.00,WeatherDisplay:10.37,2013-10-13 11:45:00,
2013-10-13 05:50:00,41.9,32.9,29.96,SE,128,1.0,5.0,70,0.00,CLR,CLR,0.00,WeatherDisplay:10.37,2013-10-13 11:50:00,
2013-10-13 05:55:00,42.2,33.1,29.97,ESE,120,2.0,6.0,70,0.00,CLR,CLR,0.00,WeatherDisplay:10.37,2013-10-13 11:55:00,
2013-10-13 06:00:00,42.5,33.0,29.97,ESE,118,0.0,6.0,69,0.00,CLR,CLR,0.00,WeatherDisplay:10.37,2013-10-13 12:00:00,
2013-10-13 06:05:00,42.5,33.0,29.97,ESE,115,0.0,0.0,69,0.00,CLR,CLR,0.00,WeatherDisplay:10.37,2013-10-13 12:05:00,
2013-10-13 06:10:00,42.2,32.7,29.97,ESE,115,0.0,0.0,69,0.00,CLR,CLR,0.00,WeatherDisplay:10.37,2013-10-13 12:10:00,
2013-10-13 06:15:00,41.4,32.7,29.97,ESE,109,0.0,0.0,71,0.00,CLR,CLR,0.00,WeatherDisplay:10.37,2013-10-13 12:15:00,
2013-10-13 06:20:00,40.7,32.4,29.97,SE,143,0.0,0.0,72,0.00,CLR,CLR,0.00,WeatherDisplay:10.37,2013-10-13 12:20:00,
2013-10-13 06:25:00,40.1,32.5,29.97,SE,146,0.0,0.0,74,0.00,CLR,CLR,0.00,WeatherDisplay:10.37,2013-10-13 12:25:00,
2013-10-13 06:30:00,39.7,32.8,29.97,North,7,2.0,5.0,76,0.00,CLR,CLR,0.00,WeatherDisplay:10.37,2013-10-13 12:30:00,
2013-10-13 06:35:00,39.2,32.6,29.97,East,95,0.0,8.0,77,0.00,CLR,CLR,0.00,WeatherDisplay:10.37,2013-10-13 12:35:00,
2013-10-13 06:40:00,39.5,32.9,29.97,SE,139,3.0,9.0,77,0.00,CLR,CLR,0.00,WeatherDisplay:10.37,2013-10-13 12:40:00,
2013-10-13 06:45:00,39.9,32.9,29.97,SE,132,0.0,2.0,76,0.00,CLR,CLR,0.00,WeatherDisplay:10.37,2013-10-13 12:45:00,
2013-10-13 06:50:00,40.0,32.7,29.97,SE,132,0.0,0.0,75,0.00,CLR,CLR,0.00,WeatherDisplay:10.37,2013-10-13 12:50:00,
2013-10-13 07:00:00,39.8,32.5,29.97,ESE,114,0.0,0.0,75,0.00,CLR,CLR,0.00,WeatherDisplay:10.37,2013-10-13 13:00:00,
2013-10-13 07:05:00,39.5,32.6,29.97,West,271,0.0,0.0,76,0.00,CLR,CLR,0.00,WeatherDisplay:10.37,2013-10-13 13:05:00,
2013-10-13 07:10:00,39.1,32.5,29.96,SSE,162,0.0,0.0,77,0.00,CLR,CLR,0.00,WeatherDisplay:10.37,2013-10-13 13:10:00,
2013-10-13 07:15:00,39.0,32.4,29.96,SE,139,0.0,0.0,77,0.00,CLR,CLR,0.00,WeatherDisplay:10.37,2013-10-13 13:15:00,
2013-10-13 07:20:00,39.1,32.8,29.96,SE,125,0.0,6.0,78,0.00,CLR,CLR,0.00,WeatherDisplay:10.37,2013-10-13 13:20:00,
2013-10-13 07:25:00,38.8,32.5,29.96,ESE,108,0.0,0.0,78,0.00,CLR,CLR,0.00,WeatherDisplay:10.37,2013-10-13 13:25:00,
2013-10-13 07:30:00,38.8,32.5,29.96,SE,128,0.0,5.0,78,0.00,CLR,CLR,0.00,WeatherDisplay:10.37,2013-10-13 13:30:00,
2013-10-13 07:35:00,38.7,32.7,29.97,SE,134,0.0,0.0,79,0.00,CLR,CLR,0.00,WeatherDisplay:10.37,2013-10-13 13:35:00,
2013-10-13 07:40:00,38.6,32.6,29.96,SE,133,0.0,0.0,79,0.00,CLR,CLR,0.00,WeatherDisplay:10.37,2013-10-13 13:40:00,
2013-10-13 07:45:00,38.6,33.0,29.96,ENE,78,0.0,4.0,80,0.00,CLR,CLR,0.00,WeatherDisplay:10.37,2013-10-13 13:45:00,
2013-10-13 07:50:00,38.8,32.8,29.97,East,85,3.0,6.0,79,0.00,CLR,CLR,0.00,WeatherDisplay:10.37,2013-10-13 13:50:00,
2013-10-13 07:55:00,39.1,33.5,29.97,SE,134,0.0,0.0,80,0.00,CLR,CLR,0.00,WeatherDisplay:10.37,2013-10-13 13:55:00,
2013-10-13 08:00:00,39.6,33.6,29.97,SW,224,0.0,0.0,79,0.00,CLR,CLR,0.00,WeatherDisplay:10.37,2013-10-13 14:00:00,
2013-10-13 08:05:00,40.1,33.8,29.97,SSW,193,0.0,0.0,78,0.00,CLR,CLR,0.00,WeatherDisplay:10.37,2013-10-13 14:05:00,
2013-10-13 08:15:00,42.2,34.5,29.95,SSE,149,0.0,7.0,74,0.00,CLR,CLR,0.00,WeatherDisplay:10.37,2013-10-13 14:15:00,
2013-10-13 08:20:00,43.6,35.2,29.96,ESE,119,0.0,3.0,72,0.00,CLR,CLR,0.00,WeatherDisplay:10.37,2013-10-13 14:20:00,
2013-10-13 08:30:00,43.1,35.4,29.96,WNW,291,0.0,2.0,74,0.00,CLR,CLR,0.00,WeatherDisplay:10.37,2013-10-13 14:30:00,
2013-10-13 08:35:00,42.6,35.3,29.96,West,274,0.0,0.0,75,0.00,CLR,CLR,0.00,WeatherDisplay:10.37,2013-10-13 14:35:00,
2013-10-13 08:40:00,42.5,35.5,29.95,WNW,289,0.0,0.0,76,0.00,CLR,CLR,0.00,WeatherDisplay:10.37,2013-10-13 14:40:00,
2013-10-13 08:45:00,42.9,35.9,29.96,West,281,0.0,3.0,76,0.00,CLR,CLR,0.00,WeatherDisplay:10.37,2013-10-13 14:45:00,
2013-10-13 08:50:00,43.3,35.9,29.96,West,273,0.0,4.0,75,0.00,CLR,CLR,0.00,WeatherDisplay:10.37,2013-10-13 14:50:00,
2013-10-13 08:55:00,43.6,36.5,29.95,West,280,0.0,0.0,76,0.00,CLR,CLR,0.00,WeatherDisplay:10.37,2013-10-13 14:55:00,
2013-10-13 09:00:00,43.9,36.5,29.95,WNW,283,0.0,4.0,75,0.00,CLR,CLR,0.00,WeatherDisplay:10.37,2013-10-13 15:00:00,
2013-10-13 09:05:00,44.5,36.7,29.95,WNW,296,0.0,2.0,74,0.00,CLR,CLR,0.00,WeatherDisplay:10.37,2013-10-13 15:05:00,
2013-10-13 09:10:00,45.4,37.3,29.95,NW,319,0.0,0.0,73,0.00,CLR,CLR,0.00,WeatherDisplay:10.37,2013-10-13 15:10:00,
2013-10-13 09:15:00,45.9,37.4,29.95,NNW,338,0.0,0.0,72,0.00,CLR,CLR,0.00,WeatherDisplay:10.37,2013-10-13 15:15:00,
2013-10-13 09:20:00,46.4,37.5,29.95,North,355,0.0,0.0,71,0.00,CLR,CLR,0.00,WeatherDisplay:10.37,2013-10-13 15:20:00,
2013-10-13 09:30:00,47.3,38.4,29.95,WSW,241,0.0,3.0,71,0.00,CLR,CLR,0.00,WeatherDisplay:10.37,2013-10-13 15:30:00,
2013-10-13 09:35:00,48.0,39.0,29.95,WSW,246,0.0,0.0,71,0.00,CLR,CLR,0.00,WeatherDisplay:10.37,2013-10-13 15:35:00,
2013-10-13 09:40:00,48.6,38.9,29.97,West,259,0.0,6.0,69,0.00,CLR,CLR,0.00,WeatherDisplay:10.37,2013-10-13 15:40:00,
2013-10-13 09:45:00,49.2,40.2,29.95,West,261,0.0,6.0,71,0.00,CLR,CLR,0.00,WeatherDisplay:10.37,2013-10-13 15:45:00,
2013-10-13 09:50:00,49.5,39.7,29.95,WNW,286,0.0,7.0,69,0.00,CLR,CLR,0.00,WeatherDisplay:10.37,2013-10-13 15:50:00,
2013-10-13 09:55:00,49.7,40.0,29.96,WNW,283,0.0,0.0,69,0.00,CLR,CLR,0.00,WeatherDisplay:10.37,2013-10-13 15:55:00,
2013-10-13 10:00:00,49.7,39.5,29.95,WNW,283,0.0,9.0,68,0.00,CLR,CLR,0.00,WeatherDisplay:10.37,2013-10-13 16:00:00,
2013-10-13 10:05:00,49.7,39.6,29.95,West,261,0.0,0.0,68,0.00,CLR,CLR,0.00,WeatherDisplay:10.37,2013-10-13 16:05:00,
2013-10-13 10:10:00,50.5,41.0,29.95,SW,223,0.0,0.0,70,0.00,CLR,CLR,0.00,WeatherDisplay:10.37,2013-10-13 16:10:00,
2013-10-13 10:15:00,51.5,40.5,29.95,WSW,247,0.0,4.0,66,0.00,CLR,CLR,0.00,WeatherDisplay:10.37,2013-10-13 16:15:00,
2013-10-13 10:20:00,52.0,40.6,29.95,West,275,0.0,0.0,65,0.00,CLR,CLR,0.00,WeatherDisplay:10.37,2013-10-13 16:20:00,
2013-10-13 10:25:00,52.8,40.6,29.94,West,269,0.0,0.0,63,0.00,CLR,CLR,0.00,WeatherDisplay:10.37,2013-10-13 16:25:00,
2013-10-13 10:30:00,53.5,40.4,29.95,West,266,0.0,1.0,61,0.00,CLR,CLR,0.00,WeatherDisplay:10.37,2013-10-13 16:30:00,
2013-10-13 10:35:00,54.4,39.9,29.94,WSW,248,2.0,6.0,58,0.00,CLR,CLR,0.00,WeatherDisplay:10.37,2013-10-13 16:35:00,
2013-10-13 10:40:00,55.8,40.8,29.94,West,269,0.0,0.0,57,0.00,CLR,CLR,0.00,WeatherDisplay:10.37,2013-10-13 16:40:00,
2013-10-13 10:45:00,57.2,43.0,29.94,WNW,290,0.0,3.0,59,0.00,CLR,CLR,0.00,WeatherDisplay:10.37,2013-10-13 16:45:00,
2013-10-13 10:50:00,57.3,40.3,29.93,West,264,0.0,0.0,53,0.00,CLR,CLR,0.00,WeatherDisplay:10.37,2013-10-13 16:50:00,
2013-10-13 10:55:00,57.8,42.2,29.93,West,271,1.0,3.0,56,0.00,CLR,CLR,0.00,WeatherDisplay:10.37,2013-10-13 16:55:00,
2013-10-13 11:00:00,58.1,42.0,29.93,WNW,290,1.0,6.0,55,0.00,CLR,CLR,0.00,WeatherDisplay:10.37,2013-10-13 17:00:00,
2013-10-13 11:05:00,58.5,42.4,29.93,NW,305,0.0,3.0,55,0.00,CLR,CLR,0.00,WeatherDisplay:10.37,2013-10-13 17:05:00,
2013-10-13 11:10:00,59.0,42.4,29.92,WNW,300,0.0,0.0,54,0.00,CLR,CLR,0.00,WeatherDisplay:10.37,2013-10-13 17:10:00,
2013-10-13 11:15:00,59.7,42.1,29.92,WNW,282,2.0,6.0,52,0.00,CLR,CLR,0.00,WeatherDisplay:10.37,2013-10-13 17:15:00,
2013-10-13 11:20:00,60.6,42.4,29.92,WSW,245,1.0,8.0,51,0.00,CLR,CLR,0.00,WeatherDisplay:10.37,2013-10-13 17:20:00,
2013-10-13 11:30:00,61.2,40.8,29.92,WSW,251,6.0,9.0,47,0.00,CLR,CLR,0.00,WeatherDisplay:10.37,2013-10-13 17:30:00,
2013-10-13 11:40:00,61.7,42.3,29.91,WSW,257,2.0,10.0,49,0.00,CLR,CLR,0.00,WeatherDisplay:10.37,2013-10-13 17:40:00,
2013-10-13 11:45:00,62.0,43.1,29.91,WNW,284,0.0,4.0,50,0.00,CLR,CLR,0.00,WeatherDisplay:10.37,2013-10-13 17:45:00,
2013-10-13 11:50:00,62.4,42.4,29.90,West,280,3.0,10.0,48,0.00,CLR,CLR,0.00,WeatherDisplay:10.37,2013-10-13 17:50:00,
2013-10-13 11:55:00,62.6,42.6,29.90,West,261,3.0,14.0,48,0.00,CLR,CLR,0.00,WeatherDisplay:10.37,2013-10-13 17:55:00,
2013-10-13 12:00:00,63.0,43.0,29.90,West,260,6.0,12.0,48,0.00,CLR,CLR,0.00,WeatherDisplay:10.37,2013-10-13 18:00:00,
2013-10-13 12:05:00,63.0,41.9,29.90,West,273,5.0,12.0,46,0.00,CLR,CLR,0.00,WeatherDisplay:10.37,2013-10-13 18:05:00,
2013-10-13 12:10:00,63.2,42.1,29.90,West,270,3.0,13.0,46,0.00,CLR,CLR,0.00,WeatherDisplay:10.37,2013-10-13 18:10:00,
2013-10-13 12:15:00,63.5,40.6,29.90,West,273,7.0,12.0,43,0.00,CLR,CLR,0.00,WeatherDisplay:10.37,2013-10-13 18:15:00,
2013-10-13 12:20:00,63.7,41.9,29.90,WNW,282,6.0,15.0,45,0.00,CLR,CLR,0.00,WeatherDisplay:10.37,2013-10-13 18:20:00,
2013-10-13 12:30:00,64.4,41.4,29.90,West,262,8.0,16.0,43,0.00,CLR,CLR,0.00,WeatherDisplay:10.37,2013-10-13 18:30:00,
2013-10-13 12:35:00,64.2,40.6,29.89,West,265,7.0,16.0,42,0.00,CLR,CLR,0.00,WeatherDisplay:10.37,2013-10-13 18:35:00,
2013-10-13 12:40:00,64.3,42.5,29.89,West,261,3.0,17.0,45,0.00,CLR,CLR,0.00,WeatherDisplay:10.37,2013-10-13 18:40:00,
2013-10-13 12:45:00,64.6,41.6,29.89,WSW,257,5.0,14.0,43,0.00,CLR,CLR,0.00,WeatherDisplay:10.37,2013-10-13 18:45:00,
2013-10-13 12:50:00,64.6,41.0,29.89,WSW,242,6.0,13.0,42,0.00,CLR,CLR,0.00,WeatherDisplay:10.37,2013-10-13 18:50:00,
2013-10-13 12:55:00,63.3,39.2,29.89,WSW,239,9.0,21.0,41,0.00,CLR,CLR,0.00,WeatherDisplay:10.37,2013-10-13 18:55:00,
2013-10-13 13:00:00,62.6,39.2,29.88,WSW,250,8.0,18.0,42,0.00,CLR,CLR,0.00,WeatherDisplay:10.37,2013-10-13 19:00:00,
2013-10-13 13:05:00,62.9,39.4,29.88,WSW,247,7.0,16.0,42,0.00,CLR,CLR,0.00,WeatherDisplay:10.37,2013-10-13 19:05:00,
2013-10-13 13:10:00,62.5,39.7,29.87,WSW,244,1.0,10.0,43,0.00,CLR,CLR,0.00,WeatherDisplay:10.37,2013-10-13 19:10:00,
2013-10-13 13:20:00,63.6,40.7,29.87,WSW,252,6.0,13.0,43,0.00,CLR,CLR,0.00,WeatherDisplay:10.37,2013-10-13 19:20:00,
2013-10-13 13:25:00,63.7,41.3,29.87,WSW,255,6.0,18.0,44,0.00,CLR,CLR,0.00,WeatherDisplay:10.37,2013-10-13 19:25:00,
2013-10-13 13:30:00,64.5,40.9,29.86,WSW,250,8.0,17.0,42,0.00,CLR,CLR,0.00,WeatherDisplay:10.37,2013-10-13 19:30:00,
2013-10-13 13:35:00,64.3,40.7,29.87,WSW,241,7.0,16.0,42,0.00,CLR,CLR,0.00,WeatherDisplay:10.37,2013-10-13 19:35:00,
2013-10-13 13:40:00,64.8,41.1,29.87,SW,223,12.0,18.0,42,0.00,CLR,CLR,0.00,WeatherDisplay:10.37,2013-10-13 19:40:00,
2013-10-13 13:45:00,64.8,41.2,29.86,SW,229,8.0,23.0,42,0.00,CLR,CLR,0.00,WeatherDisplay:10.37,2013-10-13 19:45:00,
2013-10-13 13:50:00,65.1,42.0,29.86,SW,236,2.0,12.0,43,0.00,CLR,CLR,0.00,WeatherDisplay:10.37,2013-10-13 19:50:00,
2013-10-13 14:00:00,65.2,42.1,29.85,SW,233,7.0,16.0,43,0.00,CLR,CLR,0.00,WeatherDisplay:10.37,2013-10-13 20:00:00,
2013-10-13 14:05:00,65.3,41.6,29.84,WSW,237,3.0,14.0,42,0.00,CLR,CLR,0.00,WeatherDisplay:10.37,2013-10-13 20:05:00,
2013-10-13 14:10:00,64.9,41.2,29.84,SW,229,8.0,22.0,42,0.00,CLR,CLR,0.00,WeatherDisplay:10.37,2013-10-13 20:10:00,
2013-10-13 14:15:00,64.8,40.6,29.84,WSW,240,7.0,18.0,41,0.00,CLR,CLR,0.00,WeatherDisplay:10.37,2013-10-13 20:15:00,
2013-10-13 14:20:00,64.3,41.3,29.84,WSW,251,7.0,16.0,43,0.00,CLR,CLR,0.00,WeatherDisplay:10.37,2013-10-13 20:20:00,
2013-10-13 14:30:00,62.0,41.0,29.84,WSW,238,7.0,20.0,46,0.00,CLR,CLR,0.00,WeatherDisplay:10.37,2013-10-13 20:30:00,
2013-10-13 14:35:00,61.2,40.2,29.84,WSW,241,13.0,24.0,46,0.00,CLR,CLR,0.00,WeatherDisplay:10.37,2013-10-13 20:35:00,
2013-10-13 14:40:00,61.7,41.8,29.84,WSW,241,7.0,15.0,48,0.00,CLR,CLR,0.00,WeatherDisplay:10.37,2013-10-13 20:40:00,
2013-10-13 14:45:00,62.9,42.9,29.84,WSW,239,7.0,18.0,48,0.00,CLR,CLR,0.00,WeatherDisplay:10.37,2013-10-13 20:45:00,
2013-10-13 14:50:00,63.2,42.7,29.84,WSW,249,3.0,16.0,47,0.00,CLR,CLR,0.00,WeatherDisplay:10.37,2013-10-13 20:50:00,
2013-10-13 14:55:00,62.6,42.0,29.84,WSW,251,2.0,12.0,47,0.00,CLR,CLR,0.00,WeatherDisplay:10.37,2013-10-13 20:55:00,
2013-10-13 15:00:00,61.5,41.1,29.84,WSW,245,2.0,12.0,47,0.00,CLR,CLR,0.00,WeatherDisplay:10.37,2013-10-13 21:00:00,
2013-10-13 15:05:00,60.9,41.6,29.84,WSW,238,0.0,12.0,49,0.00,CLR,CLR,0.00,WeatherDisplay:10.37,2013-10-13 21:05:00,
2013-10-13 15:10:00,60.8,42.0,29.85,SW,234,1.0,7.0,50,0.00,CLR,CLR,0.00,WeatherDisplay:10.37,2013-10-13 21:10:00,
2013-10-13 15:20:00,61.1,42.3,29.84,SSW,212,2.0,12.0,50,0.00,CLR,CLR,0.00,WeatherDisplay:10.37,2013-10-13 21:20:00,
2013-10-13 15:25:00,60.4,42.2,29.84,SSW,197,1.0,12.0,51,0.00,CLR,CLR,0.00,WeatherDisplay:10.37,2013-10-13 21:25:00,
2013-10-13 15:30:00,60.1,42.4,29.84,South,169,5.0,8.0,52,0.00,CLR,CLR,0.00,WeatherDisplay:10.37,2013-10-13 21:30:00,
2013-10-13 15:35:00,59.6,43.9,29.83,SSE,151,0.0,6.0,56,0.00,CLR,CLR,0.00,WeatherDisplay:10.37,2013-10-13 21:35:00,
2013-10-13 15:40:00,59.0,43.3,29.83,SE,133,7.0,13.0,56,0.00,CLR,CLR,0.00,WeatherDisplay:10.37,2013-10-13 21:40:00,
2013-10-13 15:50:00,56.9,43.2,29.83,SE,125,7.0,15.0,60,0.00,CLR,CLR,0.00,WeatherDisplay:10.37,2013-10-13 21:50:00,
2013-10-13 16:00:00,56.2,44.2,29.82,ESE,122,5.0,12.0,64,0.00,CLR,CLR,0.00,WeatherDisplay:10.37,2013-10-13 22:00:00,
2013-10-13 16:05:00,56.5,44.5,29.82,SE,129,5.0,12.0,64,0.00,CLR,CLR,0.00,WeatherDisplay:10.37,2013-10-13 22:05:00,
2013-10-13 16:10:00,57.8,44.0,29.82,SE,128,6.0,13.0,60,0.00,CLR,CLR,0.00,WeatherDisplay:10.37,2013-10-13 22:10:00,
2013-10-13 16:15:00,58.4,44.1,29.82,ESE,117,1.0,9.0,59,0.00,CLR,CLR,0.00,WeatherDisplay:10.37,2013-10-13 22:15:00,
2013-10-13 16:20:00,58.3,44.0,29.82,ESE,119,2.0,10.0,59,0.00,CLR,CLR,0.00,WeatherDisplay:10.37,2013-10-13 22:20:00,
2013-10-13 16:25:00,58.4,43.2,29.81,ESE,118,2.0,7.0,57,0.00,CLR,CLR,0.00,WeatherDisplay:10.37,2013-10-13 22:25:00,
2013-10-13 16:30:00,59.1,44.3,29.81,ESE,108,2.0,6.0,58,0.00,CLR,CLR,0.00,WeatherDisplay:10.37,2013-10-13 22:30:00,
2013-10-13 16:35:00,59.4,44.2,29.81,ESE,111,2.0,6.0,57,0.00,CLR,CLR,0.00,WeatherDisplay:10.37,2013-10-13 22:35:00,
2013-10-13 16:40:00,59.3,45.0,29.81,ESE,117,0.0,6.0,59,0.00,CLR,CLR,0.00,WeatherDisplay:10.37,2013-10-13 22:40:00,
2013-10-13 16:45:00,59.5,44.7,29.80,ESE,112,3.0,9.0,58,0.00,CLR,CLR,0.00,WeatherDisplay:10.37,2013-10-13 22:45:00,
2013-10-13 16:50:00,59.3,45.0,29.80,ESE,106,2.0,7.0,59,0.00,CLR,CLR,0.00,WeatherDisplay:10.37,2013-10-13 22:50:00,
2013-10-13 17:00:00,58.2,45.3,29.81,ESE,115,0.0,0.0,62,0.00,CLR,CLR,0.00,WeatherDisplay:10.37,2013-10-13 23:00:00,
2013-10-13 17:05:00,57.8,44.8,29.81,ESE,106,0.0,0.0,62,0.00,CLR,CLR,0.00,WeatherDisplay:10.37,2013-10-13 23:05:00,
2013-10-13 17:10:00,57.7,43.0,29.80,East,81,0.0,9.0,58,0.00,CLR,CLR,0.00,WeatherDisplay:10.37,2013-10-13 23:10:00,
2013-10-13 17:15:00,58.5,41.4,29.80,West,274,2.0,13.0,53,0.00,CLR,CLR,0.00,WeatherDisplay:10.37,2013-10-13 23:15:00,
2013-10-13 17:20:00,59.0,41.9,29.80,West,281,0.0,0.0,53,0.00,CLR,CLR,0.00,WeatherDisplay:10.37,2013-10-13 23:20:00,
2013-10-13 17:25:00,59.1,42.4,29.81,NW,307,0.0,0.0,54,0.00,CLR,CLR,0.00,WeatherDisplay:10.37,2013-10-13 23:25:00,
2013-10-13 17:30:00,59.2,42.6,29.80,NW,309,0.0,4.0,54,0.00,CLR,CLR,0.00,WeatherDisplay:10.37,2013-10-13 23:30:00,
2013-10-13 17:35:00,59.2,41.6,29.80,WNW,292,0.0,2.0,52,0.00,CLR,CLR,0.00,WeatherDisplay:10.37,2013-10-13 23:35:00,
2013-10-13 17:40:00,59.1,41.5,29.81,WSW,245,1.0,5.0,52,0.00,CLR,CLR,0.00,WeatherDisplay:10.37,2013-10-13 23:40:00,
2013-10-13 17:50:00,59.2,42.1,29.81,SW,225,0.0,5.0,53,0.00,CLR,CLR,0.00,WeatherDisplay:10.37,2013-10-13 23:50:00,
2013-10-13 17:55:00,58.9,41.8,29.82,SSW,192,8.0,13.0,53,0.00,CLR,CLR,0.00,WeatherDisplay:10.37,2013-10-13 23:55:00,
2013-10-13 18:00:00,58.6,40.5,29.81,South,183,16.0,27.0,51,0.00,CLR,CLR,0.00,WeatherDisplay:10.37,2013-10-14 00:00:00,
2013-10-13 18:05:00,58.7,40.1,29.80,SSW,193,12.0,26.0,50,0.00,CLR,CLR,0.00,WeatherDisplay:10.37,2013-10-14 00:05:00,
2013-10-13 18:10:00,58.4,40.3,29.80,SSW,202,5.0,15.0,51,0.00,CLR,CLR,0.00,WeatherDisplay:10.37,2013-10-14 00:10:00,
2013-10-13 18:15:00,58.1,40.0,29.80,SSW,211,1.0,13.0,51,0.00,CLR,CLR,0.00,WeatherDisplay:10.37,2013-10-14 00:15:00,
2013-10-13 18:20:00,57.7,40.6,29.80,SSW,208,0.0,1.0,53,0.00,CLR,CLR,0.00,WeatherDisplay:10.37,2013-10-14 00:20:00,
2013-10-13 18:25:00,57.1,40.6,29.80,SSW,200,0.0,4.0,54,0.00,CLR,CLR,0.00,WeatherDisplay:10.37,2013-10-14 00:25:00,
2013-10-13 18:30:00,56.5,40.5,29.80,SSW,193,0.0,0.0,55,0.00,CLR,CLR,0.00,WeatherDisplay:10.37,2013-10-14 00:30:00,
2013-10-13 18:35:00,56.3,40.8,29.80,South,189,0.0,0.0,56,0.00,CLR,CLR,0.00,WeatherDisplay:10.37,2013-10-14 00:35:00,
2013-10-13 18:40:00,56.0,40.5,29.80,South,188,0.0,0.0,56,0.00,CLR,CLR,0.00,WeatherDisplay:10.37,2013-10-14 00:40:00,
2013-10-13 18:45:00,55.5,40.5,29.79,South,188,0.0,0.0,57,0.00,CLR,CLR,0.00,WeatherDisplay:10.37,2013-10-14 00:45:00,
2013-10-13 18:50:00,54.3,40.7,29.79,South,172,2.0,5.0,60,0.00,CLR,CLR,0.00,WeatherDisplay:10.37,2013-10-14 00:50:00,
2013-10-13 18:55:00,52.8,40.9,29.79,SSE,152,0.0,4.0,64,0.00,CLR,CLR,0.00,WeatherDisplay:10.37,2013-10-14 00:55:00,
2013-10-13 19:00:00,51.8,40.8,29.79,SE,142,2.0,5.0,66,0.00,CLR,CLR,0.00,WeatherDisplay:10.37,2013-10-14 01:00:00,
2013-10-13 19:05:00,51.7,41.1,29.80,SE,146,2.0,9.0,67,0.00,CLR,CLR,0.00,WeatherDisplay:10.37,2013-10-14 01:05:00,
2013-10-13 19:10:00,52.0,41.0,29.80,SSE,148,0.0,0.0,66,0.00,CLR,CLR,0.00,WeatherDisplay:10.37,2013-10-14 01:10:00,
2013-10-13 19:15:00,51.8,41.2,29.80,SE,125,0.0,0.0,67,0.00,CLR,CLR,0.00,WeatherDisplay:10.37,2013-10-14 01:15:00,
2013-10-13 19:20:00,52.2,40.8,29.80,ESE,102,0.0,0.0,65,0.00,CLR,CLR,0.00,WeatherDisplay:10.37,2013-10-14 01:20:00,
2013-10-13 19:25:00,52.2,40.8,29.80,East,98,0.0,0.0,65,0.00,CLR,CLR,0.00,WeatherDisplay:10.37,2013-10-14 01:25:00,
2013-10-13 19:30:00,52.0,41.0,29.80,East,98,0.0,0.0,66,0.00,CLR,CLR,0.00,WeatherDisplay:10.37,2013-10-14 01:30:00,
2013-10-13 19:35:00,51.6,41.0,29.80,East,98,0.0,0.0,67,0.00,CLR,CLR,0.00,WeatherDisplay:10.37,2013-10-14 01:35:00,
2013-10-13 19:40:00,51.3,40.7,29.80,East,98,0.0,5.0,67,0.00,CLR,CLR,0.00,WeatherDisplay:10.37,2013-10-14 01:40:00,
2013-10-13 19:45:00,51.6,40.6,29.80,ESE,104,2.0,6.0,66,0.00,CLR,CLR,0.00,WeatherDisplay:10.37,2013-10-14 01:45:00,
2013-10-13 19:50:00,52.1,41.1,29.79,ESE,104,2.0,7.0,66,0.00,CLR,CLR,0.00,WeatherDisplay:10.37,2013-10-14 01:50:00,
2013-10-13 19:55:00,52.0,41.3,29.80,East,97,2.0,6.0,67,0.00,CLR,CLR,0.00,WeatherDisplay:10.37,2013-10-14 01:55:00,
2013-10-13 20:00:00,51.7,41.1,29.80,East,98,0.0,5.0,67,0.00,CLR,CLR,0.00,WeatherDisplay:10.37,2013-10-14 02:00:00,
2013-10-13 20:05:00,51.7,41.5,29.79,ESE,105,0.0,0.0,68,0.00,CLR,CLR,0.00,WeatherDisplay:10.37,2013-10-14 02:05:00,
2013-10-13 20:10:00,51.7,41.5,29.79,ESE,119,3.0,10.0,68,0.00,CLR,CLR,0.00,WeatherDisplay:10.37,2013-10-14 02:10:00,
2013-10-13 20:15:00,51.5,41.3,29.79,SSE,148,2.0,7.0,68,0.00,CLR,CLR,0.00,WeatherDisplay:10.37,2013-10-14 02:15:00,
2013-10-13 20:20:00,51.4,41.2,29.79,SE,129,5.0,10.0,68,0.00,CLR,CLR,0.00,WeatherDisplay:10.37,2013-10-14 02:20:00,
2013-10-13 20:25:00,51.5,41.3,29.79,ESE,117,0.0,3.0,68,0.00,CLR,CLR,0.00,WeatherDisplay:10.37,2013-10-14 02:25:00,
2013-10-13 20:30:00,51.4,41.2,29.78,SSE,148,0.0,1.0,68,0.00,CLR,CLR,0.00,WeatherDisplay:10.37,2013-10-14 02:30:00,
2013-10-13 20:35:00,50.9,41.4,29.78,East,99,0.0,0.0,70,0.00,CLR,CLR,0.00,WeatherDisplay:10.37,2013-10-14 02:35:00,
2013-10-13 20:40:00,50.5,40.7,29.78,ESE,114,1.0,9.0,69,0.00,CLR,CLR,0.00,WeatherDisplay:10.37,2013-10-14 02:40:00,
2013-10-13 20:45:00,50.6,41.2,29.78,ESE,119,0.0,2.0,70,0.00,CLR,CLR,0.00,WeatherDisplay:10.37,2013-10-14 02:45:00,
2013-10-13 20:50:00,50.5,41.8,29.77,ESE,119,0.0,0.0,72,0.00,CLR,CLR,0.00,WeatherDisplay:10.37,2013-10-14 02:50:00,
2013-10-13 20:55:00,50.0,41.7,29.78,ESE,120,0.0,0.0,73,0.00,CLR,CLR,0.00,WeatherDisplay:10.37,2013-10-14 02:55:00,
2013-10-13 21:00:00,49.7,41.7,29.78,ESE,120,0.0,0.0,74,0.00,CLR,CLR,0.00,WeatherDisplay:10.37,2013-10-14 03:00:00,
2013-10-13 21:05:00,49.6,41.3,29.78,ESE,119,0.0,0.0,73,0.00,CLR,CLR,0.00,WeatherDisplay:10.37,2013-10-14 03:05:00,
2013-10-13 21:10:00,49.5,41.2,29.78,ESE,120,0.0,0.0,73,0.00,CLR,CLR,0.00,WeatherDisplay:10.37,2013-10-14 03:10:00,
2013-10-13 21:15:00,49.7,41.7,29.78,ESE,120,0.0,0.0,74,0.00,CLR,CLR,0.00,WeatherDisplay:10.37,2013-10-14 03:15:00,
2013-10-13 21:20:00,50.1,42.5,29.77,SE,124,0.0,1.0,75,0.00,CLR,CLR,0.00,WeatherDisplay:10.37,2013-10-14 03:20:00,
2013-10-13 21:25:00,51.5,40.5,29.77,SSW,201,5.0,7.0,66,0.00,CLR,CLR,0.00,WeatherDisplay:10.37,2013-10-14 03:25:00,
2013-10-13 21:30:00,53.7,41.0,29.77,SSW,213,2.0,9.0,62,0.00,CLR,CLR,0.00,WeatherDisplay:10.37,2013-10-14 03:30:00,
2013-10-13 21:35:00,54.2,42.3,29.78,SW,223,0.0,2.0,64,0.00,CLR,CLR,0.00,WeatherDisplay:10.37,2013-10-14 03:35:00,
2013-10-13 21:40:00,53.9,42.0,29.78,West,267,0.0,4.0,64,0.00,CLR,CLR,0.00,WeatherDisplay:10.37,2013-10-14 03:40:00,
2013-10-13 21:45:00,53.2,42.6,29.78,SW,221,0.0,0.0,67,0.00,CLR,CLR,0.00,WeatherDisplay:10.37,2013-10-14 03:45:00,
2013-10-13 21:50:00,53.0,41.9,29.77,SSW,203,0.0,0.0,66,0.00,CLR,CLR,0.00,WeatherDisplay:10.37,2013-10-14 03:50:00,
2013-10-13 21:55:00,53.3,42.6,29.78,SSW,202,0.0,0.0,67,0.00,CLR,CLR,0.00,WeatherDisplay:10.37,2013-10-14 03:55:00,
2013-10-13 22:00:00,53.2,42.9,29.78,SSW,202,0.0,0.0,68,0.00,CLR,CLR,0.00,WeatherDisplay:10.37,2013-10-14 04:00:00,
2013-10-13 22:05:00,52.9,43.7,29.78,SSW,202,0.0,0.0,71,0.00,CLR,CLR,0.00,WeatherDisplay:10.37,2013-10-14 04:05:00,
2013-10-13 22:10:00,52.3,43.5,29.77,SSW,202,0.0,0.0,72,0.00,CLR,CLR,0.00,WeatherDisplay:10.37,2013-10-14 04:10:00,
2013-10-13 22:15:00,50.9,42.9,29.76,SSW,202,0.0,0.0,74,0.00,CLR,CLR,0.00,WeatherDisplay:10.37,2013-10-14 04:15:00,
2013-10-13 22:20:00,49.4,42.1,29.77,SSW,202,0.0,2.0,76,0.00,CLR,CLR,0.00,WeatherDisplay:10.37,2013-10-14 04:20:00,
2013-10-13 22:25:00,48.5,42.0,29.77,SSW,202,0.0,3.0,78,0.00,CLR,CLR,0.00,WeatherDisplay:10.37,2013-10-14 04:25:00,
2013-10-13 22:30:00,48.3,42.1,29.77,SSW,202,0.0,0.0,79,0.00,CLR,CLR,0.00,WeatherDisplay:10.37,2013-10-14 04:30:00,
2013-10-13 22:35:00,48.3,42.4,29.78,SSW,202,0.0,0.0,80,0.00,CLR,CLR,0.00,WeatherDisplay:10.37,2013-10-14 04:35:00,
2013-10-13 22:40:00,47.9,42.0,29.78,SSW,202,0.0,0.0,80,0.00,CLR,CLR,0.00,WeatherDisplay:10.37,2013-10-14 04:40:00,
2013-10-13 22:45:00,47.7,42.2,29.78,SSW,202,0.0,0.0,81,0.00,CLR,CLR,0.00,WeatherDisplay:10.37,2013-10-14 04:45:00,
2013-10-13 22:50:00,47.6,41.4,29.77,SSW,202,0.0,0.0,79,0.00,CLR,CLR,0.00,WeatherDisplay:10.37,2013-10-14 04:50:00,
2013-10-13 22:55:00,47.8,41.6,29.77,SSW,202,0.0,0.0,79,0.00,CLR,CLR,0.00,WeatherDisplay:10.37,2013-10-14 04:55:00,
2013-10-13 23:00:00,47.8,41.6,29.78,SSW,202,0.0,0.0,79,0.00,CLR,CLR,0.00,WeatherDisplay:10.37,2013-10-14 05:00:00,
2013-10-13 23:05:00,48.2,41.7,29.77,SSW,202,0.0,0.0,78,0.00,CLR,CLR,0.00,WeatherDisplay:10.37,2013-10-14 05:05:00,
2013-10-13 23:10:00,49.2,41.9,29.77,SSW,202,0.0,0.0,76,0.00,CLR,CLR,0.00,WeatherDisplay:10.37,2013-10-14 05:10:00,
2013-10-13 23:15:00,49.8,41.5,29.77,SSW,202,0.0,0.0,73,0.00,CLR,CLR,0.00,WeatherDisplay:10.37,2013-10-14 05:15:00,
2013-10-13 23:20:00,50.2,41.9,29.78,SW,216,5.0,9.0,73,0.00,CLR,CLR,0.00,WeatherDisplay:10.37,2013-10-14 05:20:00,
2013-10-13 23:25:00,50.5,41.8,29.80,WSW,243,7.0,13.0,72,0.00,CLR,CLR,0.00,WeatherDisplay:10.37,2013-10-14 05:25:00,
2013-10-13 23:30:00,50.4,42.1,29.80,WSW,242,6.0,14.0,73,0.01,RA,RA,0.01,WeatherDisplay:10.37,2013-10-14 05:30:00,
2013-10-13 23:35:00,50.3,41.3,29.78,West,262,5.0,12.0,71,0.00,RA,RA,0.01,WeatherDisplay:10.37,2013-10-14 05:35:00,
2013-10-13 23:40:00,49.5,41.9,29.79,WNW,290,2.0,6.0,75,0.01,RA,RA,0.02,WeatherDisplay:10.37,2013-10-14 05:40:00,
2013-10-13 23:45:00,48.7,42.1,29.83,West,273,2.0,12.0,78,0.00,RA,RA,0.02,WeatherDisplay:10.37,2013-10-14 05:45:00,
2013-10-13 23:50:00,48.0,41.4,29.84,West,273,3.0,9.0,78,0.01,RA,RA,0.03,WeatherDisplay:10.37,2013-10-14 05:50:00,
2013-10-13 23:55:00,47.1,41.3,29.83,WNW,284,6.0,17.0,80,0.03,RA,RA,0.06,WeatherDisplay:10.37,2013-10-14 05:55:00,